sensor_id;sensor_type;location;lat;lon;timestamp;temperature;humidity
38684;DHT22;24910;53.248;-6.134;2023-06-14T00:02:09;20.10;68.00
38684;DHT22;24910;53.248;-6.134;2023-06-14T00:04:38;20.10;68.00
38684;DHT22;24910;53.248;-6.134;2023-06-14T00:07:09;20.00;68.20
38684;DHT22;24910;53.248;-6.134;2023-06-14T00:09:41;20.00;68.10
38684;DHT22;24910;53.248;-6.134;2023-06-14T00:12:12;20.00;68.00
38684;DHT22;24910;53.248;-6.134;2023-06-14T00:14:41;20.00;68.10
38684;DHT22;24910;53.248;-6.134;2023-06-14T00:17:11;20.00;68.20
38684;DHT22;24910;53.248;-6.134;2023-06-14T00:19:40;20.00;68.30
38684;DHT22;24910;53.248;-6.134;2023-06-14T00:22:09;20.00;68.30
38684;DHT22;24910;53.248;-6.134;2023-06-14T00:24:40;20.00;68.40
38684;DHT22;24910;53.248;-6.134;2023-06-14T00:27:09;19.90;68.50
38684;DHT22;24910;53.248;-6.134;2023-06-14T00:29:40;19.90;68.70
38684;DHT22;24910;53.248;-6.134;2023-06-14T00:32:10;19.90;69.00
38684;DHT22;24910;53.248;-6.134;2023-06-14T00:34:39;19.90;69.00
38684;DHT22;24910;53.248;-6.134;2023-06-14T00:37:08;19.90;69.20
38684;DHT22;24910;53.248;-6.134;2023-06-14T00:39:37;19.90;69.30
38684;DHT22;24910;53.248;-6.134;2023-06-14T00:42:07;19.80;69.10
38684;DHT22;24910;53.248;-6.134;2023-06-14T00:44:36;19.80;69.10
38684;DHT22;24910;53.248;-6.134;2023-06-14T00:47:06;19.80;69.10
38684;DHT22;24910;53.248;-6.134;2023-06-14T00:49:36;19.80;69.50
38684;DHT22;24910;53.248;-6.134;2023-06-14T00:52:05;19.80;69.60
38684;DHT22;24910;53.248;-6.134;2023-06-14T00:54:34;19.80;69.70
38684;DHT22;24910;53.248;-6.134;2023-06-14T00:57:04;19.80;69.60
38684;DHT22;24910;53.248;-6.134;2023-06-14T00:59:37;19.80;69.60
38684;DHT22;24910;53.248;-6.134;2023-06-14T01:02:08;19.80;69.60
38684;DHT22;24910;53.248;-6.134;2023-06-14T01:04:38;19.80;69.70
38684;DHT22;24910;53.248;-6.134;2023-06-14T01:07:23;19.80;69.80
38684;DHT22;24910;53.248;-6.134;2023-06-14T01:10:06;19.80;69.90
38684;DHT22;24910;53.248;-6.134;2023-06-14T01:12:43;19.70;70.20
38684;DHT22;24910;53.248;-6.134;2023-06-14T01:15:13;19.70;70.40
38684;DHT22;24910;53.248;-6.134;2023-06-14T01:17:45;19.70;71.40
38684;DHT22;24910;53.248;-6.134;2023-06-14T01:20:15;19.70;70.80
38684;DHT22;24910;53.248;-6.134;2023-06-14T01:22:52;19.60;70.80
38684;DHT22;24910;53.248;-6.134;2023-06-14T01:25:22;19.60;71.10
38684;DHT22;24910;53.248;-6.134;2023-06-14T01:27:53;19.60;71.20
38684;DHT22;24910;53.248;-6.134;2023-06-14T01:30:26;19.60;71.30
38684;DHT22;24910;53.248;-6.134;2023-06-14T01:32:56;19.60;71.10
38684;DHT22;24910;53.248;-6.134;2023-06-14T01:35:27;19.60;71.30
38684;DHT22;24910;53.248;-6.134;2023-06-14T01:37:57;19.60;71.30
38684;DHT22;24910;53.248;-6.134;2023-06-14T01:40:31;19.60;71.50
38684;DHT22;24910;53.248;-6.134;2023-06-14T01:43:01;19.60;71.50
38684;DHT22;24910;53.248;-6.134;2023-06-14T01:45:31;19.60;71.60
38684;DHT22;24910;53.248;-6.134;2023-06-14T01:48:01;19.60;71.70
38684;DHT22;24910;53.248;-6.134;2023-06-14T01:50:31;19.60;71.80
38684;DHT22;24910;53.248;-6.134;2023-06-14T01:53:02;19.60;72.20
38684;DHT22;24910;53.248;-6.134;2023-06-14T01:55:31;19.60;72.30
38684;DHT22;24910;53.248;-6.134;2023-06-14T01:58:09;19.60;72.30
38684;DHT22;24910;53.248;-6.134;2023-06-14T02:00:38;19.50;72.40
38684;DHT22;24910;53.248;-6.134;2023-06-14T02:03:08;19.50;72.70
38684;DHT22;24910;53.248;-6.134;2023-06-14T02:05:37;19.50;72.90
38684;DHT22;24910;53.248;-6.134;2023-06-14T02:08:08;19.50;73.00
38684;DHT22;24910;53.248;-6.134;2023-06-14T02:10:38;19.50;73.10
38684;DHT22;24910;53.248;-6.134;2023-06-14T02:13:07;19.40;73.20
38684;DHT22;24910;53.248;-6.134;2023-06-14T02:15:36;19.40;73.30
38684;DHT22;24910;53.248;-6.134;2023-06-14T02:18:06;19.40;73.20
38684;DHT22;24910;53.248;-6.134;2023-06-14T02:20:36;19.40;73.20
38684;DHT22;24910;53.248;-6.134;2023-06-14T02:23:05;19.40;73.30
38684;DHT22;24910;53.248;-6.134;2023-06-14T02:25:37;19.40;73.30
38684;DHT22;24910;53.248;-6.134;2023-06-14T02:28:08;19.40;73.20
38684;DHT22;24910;53.248;-6.134;2023-06-14T02:30:38;19.40;73.10
38684;DHT22;24910;53.248;-6.134;2023-06-14T02:33:08;19.40;72.90
38684;DHT22;24910;53.248;-6.134;2023-06-14T02:35:40;19.40;72.90
38684;DHT22;24910;53.248;-6.134;2023-06-14T02:38:09;19.40;72.90
38684;DHT22;24910;53.248;-6.134;2023-06-14T02:40:41;19.40;72.60
38684;DHT22;24910;53.248;-6.134;2023-06-14T02:43:10;19.40;72.50
38684;DHT22;24910;53.248;-6.134;2023-06-14T02:45:39;19.40;72.60
38684;DHT22;24910;53.248;-6.134;2023-06-14T02:48:09;19.30;72.50
38684;DHT22;24910;53.248;-6.134;2023-06-14T02:50:41;19.30;72.60
38684;DHT22;24910;53.248;-6.134;2023-06-14T02:53:10;19.30;72.70
38684;DHT22;24910;53.248;-6.134;2023-06-14T02:55:41;19.40;72.80
38684;DHT22;24910;53.248;-6.134;2023-06-14T02:58:10;19.40;72.80
38684;DHT22;24910;53.248;-6.134;2023-06-14T03:00:41;19.40;72.80
38684;DHT22;24910;53.248;-6.134;2023-06-14T03:03:11;19.30;72.80
38684;DHT22;24910;53.248;-6.134;2023-06-14T03:05:47;19.40;72.90
38684;DHT22;24910;53.248;-6.134;2023-06-14T03:08:21;19.30;72.90
38684;DHT22;24910;53.248;-6.134;2023-06-14T03:10:57;19.30;73.10
38684;DHT22;24910;53.248;-6.134;2023-06-14T03:13:27;19.30;73.30
38684;DHT22;24910;53.248;-6.134;2023-06-14T03:16:00;19.30;73.60
38684;DHT22;24910;53.248;-6.134;2023-06-14T03:18:34;19.30;73.80
38684;DHT22;24910;53.248;-6.134;2023-06-14T03:21:06;19.30;73.90
38684;DHT22;24910;53.248;-6.134;2023-06-14T03:23:39;19.30;73.90
38684;DHT22;24910;53.248;-6.134;2023-06-14T03:26:10;19.30;73.80
38684;DHT22;24910;53.248;-6.134;2023-06-14T03:28:43;19.30;73.70
38684;DHT22;24910;53.248;-6.134;2023-06-14T03:31:12;19.30;73.60
38684;DHT22;24910;53.248;-6.134;2023-06-14T03:33:42;19.30;73.30
38684;DHT22;24910;53.248;-6.134;2023-06-14T03:36:11;19.30;73.20
38684;DHT22;24910;53.248;-6.134;2023-06-14T03:38:40;19.20;73.20
38684;DHT22;24910;53.248;-6.134;2023-06-14T03:41:12;19.20;73.10
38684;DHT22;24910;53.248;-6.134;2023-06-14T03:43:41;19.20;72.60
38684;DHT22;24910;53.248;-6.134;2023-06-14T03:46:11;19.20;72.10
38684;DHT22;24910;53.248;-6.134;2023-06-14T03:48:40;19.20;71.90
38684;DHT22;24910;53.248;-6.134;2023-06-14T03:51:10;19.20;71.40
38684;DHT22;24910;53.248;-6.134;2023-06-14T03:53:40;19.20;70.70
38684;DHT22;24910;53.248;-6.134;2023-06-14T03:56:30;19.20;70.20
38684;DHT22;24910;53.248;-6.134;2023-06-14T03:59:00;19.20;69.80
38684;DHT22;24910;53.248;-6.134;2023-06-14T04:01:29;19.20;69.50
38684;DHT22;24910;53.248;-6.134;2023-06-14T04:04:00;19.20;69.20
38684;DHT22;24910;53.248;-6.134;2023-06-14T04:06:29;19.20;68.80
38684;DHT22;24910;53.248;-6.134;2023-06-14T04:09:00;19.20;68.50
38684;DHT22;24910;53.248;-6.134;2023-06-14T04:11:34;19.20;68.40
38684;DHT22;24910;53.248;-6.134;2023-06-14T04:14:05;19.20;68.10
38684;DHT22;24910;53.248;-6.134;2023-06-14T04:16:34;19.20;67.60
38684;DHT22;24910;53.248;-6.134;2023-06-14T04:19:04;19.20;67.40
38684;DHT22;24910;53.248;-6.134;2023-06-14T04:21:33;19.20;67.00
38684;DHT22;24910;53.248;-6.134;2023-06-14T04:24:04;19.20;66.80
38684;DHT22;24910;53.248;-6.134;2023-06-14T04:26:36;19.20;66.60
38684;DHT22;24910;53.248;-6.134;2023-06-14T04:29:06;19.30;66.40
38684;DHT22;24910;53.248;-6.134;2023-06-14T04:31:41;19.30;66.40
38684;DHT22;24910;53.248;-6.134;2023-06-14T04:34:12;19.30;66.40
38684;DHT22;24910;53.248;-6.134;2023-06-14T04:36:50;19.40;66.00
38684;DHT22;24910;53.248;-6.134;2023-06-14T04:39:25;19.40;65.50
38684;DHT22;24910;53.248;-6.134;2023-06-14T04:41:55;19.40;65.10
38684;DHT22;24910;53.248;-6.134;2023-06-14T04:44:29;19.30;65.00
38684;DHT22;24910;53.248;-6.134;2023-06-14T04:47:05;19.40;64.60
38684;DHT22;24910;53.248;-6.134;2023-06-14T04:49:34;19.40;64.40
38684;DHT22;24910;53.248;-6.134;2023-06-14T04:52:05;19.40;64.50
38684;DHT22;24910;53.248;-6.134;2023-06-14T04:54:37;19.40;64.40
38684;DHT22;24910;53.248;-6.134;2023-06-14T04:57:09;19.50;64.10
38684;DHT22;24910;53.248;-6.134;2023-06-14T04:59:42;19.50;64.00
38684;DHT22;24910;53.248;-6.134;2023-06-14T05:02:12;19.60;64.00
38684;DHT22;24910;53.248;-6.134;2023-06-14T05:04:41;19.60;63.70
38684;DHT22;24910;53.248;-6.134;2023-06-14T05:07:11;19.70;64.20
38684;DHT22;24910;53.248;-6.134;2023-06-14T05:09:42;19.80;63.20
38684;DHT22;24910;53.248;-6.134;2023-06-14T05:12:14;19.90;63.10
38684;DHT22;24910;53.248;-6.134;2023-06-14T05:14:46;20.10;63.10
38684;DHT22;24910;53.248;-6.134;2023-06-14T05:17:18;20.20;63.20
38684;DHT22;24910;53.248;-6.134;2023-06-14T05:19:48;20.40;63.10
38684;DHT22;24910;53.248;-6.134;2023-06-14T05:22:17;20.60;62.90
38684;DHT22;24910;53.248;-6.134;2023-06-14T05:24:46;20.80;62.70
38684;DHT22;24910;53.248;-6.134;2023-06-14T05:27:18;21.00;62.40
38684;DHT22;24910;53.248;-6.134;2023-06-14T05:29:47;21.10;61.90
38684;DHT22;24910;53.248;-6.134;2023-06-14T05:32:16;21.30;61.60
38684;DHT22;24910;53.248;-6.134;2023-06-14T05:34:46;21.30;60.90
38684;DHT22;24910;53.248;-6.134;2023-06-14T05:37:15;21.40;60.80
38684;DHT22;24910;53.248;-6.134;2023-06-14T05:39:45;21.50;60.60
38684;DHT22;24910;53.248;-6.134;2023-06-14T05:42:14;21.60;60.30
38684;DHT22;24910;53.248;-6.134;2023-06-14T05:44:44;21.60;59.70
38684;DHT22;24910;53.248;-6.134;2023-06-14T05:47:14;21.70;59.40
38684;DHT22;24910;53.248;-6.134;2023-06-14T05:49:43;21.80;59.40
38684;DHT22;24910;53.248;-6.134;2023-06-14T05:52:12;21.90;59.10
38684;DHT22;24910;53.248;-6.134;2023-06-14T05:54:41;22.10;58.50
38684;DHT22;24910;53.248;-6.134;2023-06-14T05:57:10;22.20;57.80
38684;DHT22;24910;53.248;-6.134;2023-06-14T05:59:40;22.30;57.50
38684;DHT22;24910;53.248;-6.134;2023-06-14T06:02:12;22.40;57.10
38684;DHT22;24910;53.248;-6.134;2023-06-14T06:04:42;22.40;56.90
38684;DHT22;24910;53.248;-6.134;2023-06-14T06:07:11;22.50;56.90
38684;DHT22;24910;53.248;-6.134;2023-06-14T06:09:40;22.60;56.90
38684;DHT22;24910;53.248;-6.134;2023-06-14T06:12:09;22.70;56.60
38684;DHT22;24910;53.248;-6.134;2023-06-14T06:14:39;22.80;56.70
38684;DHT22;24910;53.248;-6.134;2023-06-14T06:17:08;22.80;56.00
38684;DHT22;24910;53.248;-6.134;2023-06-14T06:19:38;22.90;56.00
38684;DHT22;24910;53.248;-6.134;2023-06-14T06:22:08;23.00;55.70
38684;DHT22;24910;53.248;-6.134;2023-06-14T06:24:37;23.10;55.40
38684;DHT22;24910;53.248;-6.134;2023-06-14T06:27:11;23.10;54.90
38684;DHT22;24910;53.248;-6.134;2023-06-14T06:29:42;23.20;55.00
38684;DHT22;24910;53.248;-6.134;2023-06-14T06:32:13;23.20;55.10
38684;DHT22;24910;53.248;-6.134;2023-06-14T06:34:44;23.20;55.80
38684;DHT22;24910;53.248;-6.134;2023-06-14T06:37:13;23.10;55.90
38684;DHT22;24910;53.248;-6.134;2023-06-14T06:39:43;23.10;56.00
38684;DHT22;24910;53.248;-6.134;2023-06-14T06:42:12;23.00;56.20
38684;DHT22;24910;53.248;-6.134;2023-06-14T06:44:43;23.00;56.20
38684;DHT22;24910;53.248;-6.134;2023-06-14T06:47:12;23.10;56.40
38684;DHT22;24910;53.248;-6.134;2023-06-14T06:49:46;23.10;56.00
38684;DHT22;24910;53.248;-6.134;2023-06-14T06:52:17;23.20;56.10
38684;DHT22;24910;53.248;-6.134;2023-06-14T06:54:46;23.20;56.00
38684;DHT22;24910;53.248;-6.134;2023-06-14T06:57:17;23.20;55.70
38684;DHT22;24910;53.248;-6.134;2023-06-14T06:59:46;23.20;55.20
38684;DHT22;24910;53.248;-6.134;2023-06-14T07:02:15;23.20;55.10
38684;DHT22;24910;53.248;-6.134;2023-06-14T07:04:44;23.30;55.00
38684;DHT22;24910;53.248;-6.134;2023-06-14T07:07:15;23.30;55.00
38684;DHT22;24910;53.248;-6.134;2023-06-14T07:09:44;23.40;55.60
38684;DHT22;24910;53.248;-6.134;2023-06-14T07:12:14;23.40;55.30
38684;DHT22;24910;53.248;-6.134;2023-06-14T07:14:43;23.50;55.70
38684;DHT22;24910;53.248;-6.134;2023-06-14T07:17:13;23.60;55.70
38684;DHT22;24910;53.248;-6.134;2023-06-14T07:19:43;23.70;55.70
38684;DHT22;24910;53.248;-6.134;2023-06-14T07:22:16;23.80;55.00
38684;DHT22;24910;53.248;-6.134;2023-06-14T07:24:45;23.80;54.40
38684;DHT22;24910;53.248;-6.134;2023-06-14T07:27:14;23.80;54.30
38684;DHT22;24910;53.248;-6.134;2023-06-14T07:29:43;23.90;54.20
38684;DHT22;24910;53.248;-6.134;2023-06-14T07:32:13;23.90;53.80
38684;DHT22;24910;53.248;-6.134;2023-06-14T07:34:42;24.00;53.50
38684;DHT22;24910;53.248;-6.134;2023-06-14T07:37:11;24.10;53.60
38684;DHT22;24910;53.248;-6.134;2023-06-14T07:39:42;24.10;53.30
38684;DHT22;24910;53.248;-6.134;2023-06-14T07:42:11;24.20;52.60
38684;DHT22;24910;53.248;-6.134;2023-06-14T07:44:40;24.20;52.20
38684;DHT22;24910;53.248;-6.134;2023-06-14T07:47:09;24.30;51.40
38684;DHT22;24910;53.248;-6.134;2023-06-14T07:49:38;24.20;51.00
38684;DHT22;24910;53.248;-6.134;2023-06-14T07:52:07;24.20;50.80
38684;DHT22;24910;53.248;-6.134;2023-06-14T07:54:37;24.20;50.60
38684;DHT22;24910;53.248;-6.134;2023-06-14T07:57:08;24.10;50.40
38684;DHT22;24910;53.248;-6.134;2023-06-14T07:59:37;24.10;50.50
38684;DHT22;24910;53.248;-6.134;2023-06-14T08:02:06;24.10;50.70
38684;DHT22;24910;53.248;-6.134;2023-06-14T08:04:35;24.20;50.70
38684;DHT22;24910;53.248;-6.134;2023-06-14T08:07:04;24.20;49.90
38684;DHT22;24910;53.248;-6.134;2023-06-14T08:09:35;24.20;49.50
38684;DHT22;24910;53.248;-6.134;2023-06-14T08:12:08;24.20;49.50
38684;DHT22;24910;53.248;-6.134;2023-06-14T08:14:39;24.20;49.40
38684;DHT22;24910;53.248;-6.134;2023-06-14T08:17:08;24.20;49.00
38684;DHT22;24910;53.248;-6.134;2023-06-14T08:19:38;24.20;48.30
38684;DHT22;24910;53.248;-6.134;2023-06-14T08:22:07;24.20;48.00
38684;DHT22;24910;53.248;-6.134;2023-06-14T08:24:39;24.20;48.20
38684;DHT22;24910;53.248;-6.134;2023-06-14T08:27:11;24.10;47.40
38684;DHT22;24910;53.248;-6.134;2023-06-14T08:29:40;24.00;47.70
38684;DHT22;24910;53.248;-6.134;2023-06-14T08:32:10;23.90;47.40
38684;DHT22;24910;53.248;-6.134;2023-06-14T08:34:39;23.80;47.20
38684;DHT22;24910;53.248;-6.134;2023-06-14T08:37:14;23.70;47.40
38684;DHT22;24910;53.248;-6.134;2023-06-14T08:39:43;23.80;48.00
38684;DHT22;24910;53.248;-6.134;2023-06-14T08:42:14;23.80;47.80
38684;DHT22;24910;53.248;-6.134;2023-06-14T08:44:58;23.90;47.70
38684;DHT22;24910;53.248;-6.134;2023-06-14T08:47:27;24.00;47.60
38684;DHT22;24910;53.248;-6.134;2023-06-14T08:50:09;24.10;47.70
38684;DHT22;24910;53.248;-6.134;2023-06-14T08:52:57;24.20;47.30
38684;DHT22;24910;53.248;-6.134;2023-06-14T08:55:29;24.30;46.90
38684;DHT22;24910;53.248;-6.134;2023-06-14T08:58:05;24.30;46.20
38684;DHT22;24910;53.248;-6.134;2023-06-14T09:00:37;24.20;46.10
38684;DHT22;24910;53.248;-6.134;2023-06-14T09:03:09;24.20;46.10
38684;DHT22;24910;53.248;-6.134;2023-06-14T09:05:41;24.10;45.60
38684;DHT22;24910;53.248;-6.134;2023-06-14T09:08:11;24.00;44.30
38684;DHT22;24910;53.248;-6.134;2023-06-14T09:10:41;23.80;44.40
38684;DHT22;24910;53.248;-6.134;2023-06-14T09:13:12;23.70;44.70
38684;DHT22;24910;53.248;-6.134;2023-06-14T09:15:41;23.70;44.30
38684;DHT22;24910;53.248;-6.134;2023-06-14T09:18:11;23.60;43.80
38684;DHT22;24910;53.248;-6.134;2023-06-14T09:20:40;23.60;43.80
38684;DHT22;24910;53.248;-6.134;2023-06-14T09:23:09;23.70;43.40
38684;DHT22;24910;53.248;-6.134;2023-06-14T09:25:45;23.70;43.10
38684;DHT22;24910;53.248;-6.134;2023-06-14T09:28:16;23.70;42.70
38684;DHT22;24910;53.248;-6.134;2023-06-14T09:30:45;23.50;43.10
38684;DHT22;24910;53.248;-6.134;2023-06-14T09:33:17;23.50;43.70
38684;DHT22;24910;53.248;-6.134;2023-06-14T09:35:47;23.50;44.10
38684;DHT22;24910;53.248;-6.134;2023-06-14T09:38:19;23.50;44.60
38684;DHT22;24910;53.248;-6.134;2023-06-14T09:40:50;23.50;44.70
38684;DHT22;24910;53.248;-6.134;2023-06-14T09:43:21;23.50;44.70
38684;DHT22;24910;53.248;-6.134;2023-06-14T09:45:50;23.40;44.90
38684;DHT22;24910;53.248;-6.134;2023-06-14T09:48:20;23.40;45.10
38684;DHT22;24910;53.248;-6.134;2023-06-14T09:50:50;23.30;45.90
38684;DHT22;24910;53.248;-6.134;2023-06-14T09:53:21;23.20;46.30
38684;DHT22;24910;53.248;-6.134;2023-06-14T09:55:52;23.10;46.50
38684;DHT22;24910;53.248;-6.134;2023-06-14T09:58:26;22.90;47.20
38684;DHT22;24910;53.248;-6.134;2023-06-14T10:00:57;22.80;47.80
38684;DHT22;24910;53.248;-6.134;2023-06-14T10:03:29;22.80;48.50
38684;DHT22;24910;53.248;-6.134;2023-06-14T10:06:19;22.80;49.10
38684;DHT22;24910;53.248;-6.134;2023-06-14T10:08:52;23.00;49.20
38684;DHT22;24910;53.248;-6.134;2023-06-14T10:11:23;23.10;49.50
38684;DHT22;24910;53.248;-6.134;2023-06-14T10:13:55;23.10;49.80
38684;DHT22;24910;53.248;-6.134;2023-06-14T10:16:27;23.20;50.20
38684;DHT22;24910;53.248;-6.134;2023-06-14T10:19:04;23.20;50.50
38684;DHT22;24910;53.248;-6.134;2023-06-14T10:21:43;23.10;50.70
38684;DHT22;24910;53.248;-6.134;2023-06-14T10:24:18;22.90;51.00
38684;DHT22;24910;53.248;-6.134;2023-06-14T10:26:53;22.80;51.20
38684;DHT22;24910;53.248;-6.134;2023-06-14T10:29:28;22.60;51.20
38684;DHT22;24910;53.248;-6.134;2023-06-14T10:32:00;22.50;51.50
38684;DHT22;24910;53.248;-6.134;2023-06-14T10:34:31;22.40;51.90
38684;DHT22;24910;53.248;-6.134;2023-06-14T10:37:02;22.50;52.10
38684;DHT22;24910;53.248;-6.134;2023-06-14T10:39:32;22.40;52.40
38684;DHT22;24910;53.248;-6.134;2023-06-14T10:42:02;22.30;52.70
38684;DHT22;24910;53.248;-6.134;2023-06-14T10:44:44;22.20;53.00
38684;DHT22;24910;53.248;-6.134;2023-06-14T10:47:27;22.30;53.10
38684;DHT22;24910;53.248;-6.134;2023-06-14T10:50:04;22.30;52.90
38684;DHT22;24910;53.248;-6.134;2023-06-14T10:52:37;22.40;52.80
38684;DHT22;24910;53.248;-6.134;2023-06-14T10:55:10;22.50;53.00
38684;DHT22;24910;53.248;-6.134;2023-06-14T10:57:43;22.50;53.20
38684;DHT22;24910;53.248;-6.134;2023-06-14T11:00:22;22.60;53.20
38684;DHT22;24910;53.248;-6.134;2023-06-14T11:05:58;22.70;53.30
38684;DHT22;24910;53.248;-6.134;2023-06-14T11:11:42;22.70;53.20
38684;DHT22;24910;53.248;-6.134;2023-06-14T11:14:14;22.70;53.20
38684;DHT22;24910;53.248;-6.134;2023-06-14T11:16:49;22.50;53.40
38684;DHT22;24910;53.248;-6.134;2023-06-14T11:19:26;22.40;53.80
38684;DHT22;24910;53.248;-6.134;2023-06-14T11:21:56;22.30;54.10
38684;DHT22;24910;53.248;-6.134;2023-06-14T11:24:26;22.40;54.30
38684;DHT22;24910;53.248;-6.134;2023-06-14T11:26:56;22.40;54.20
38684;DHT22;24910;53.248;-6.134;2023-06-14T11:29:26;22.20;54.40
38684;DHT22;24910;53.248;-6.134;2023-06-14T11:31:59;22.20;54.60
38684;DHT22;24910;53.248;-6.134;2023-06-14T11:34:29;22.00;54.70
38684;DHT22;24910;53.248;-6.134;2023-06-14T11:36:59;21.90;55.00
38684;DHT22;24910;53.248;-6.134;2023-06-14T11:39:28;21.90;55.50
38684;DHT22;24910;53.248;-6.134;2023-06-14T11:41:58;22.00;55.70
38684;DHT22;24910;53.248;-6.134;2023-06-14T11:44:29;22.10;55.70
38684;DHT22;24910;53.248;-6.134;2023-06-14T11:46:59;22.20;55.80
38684;DHT22;24910;53.248;-6.134;2023-06-14T11:49:35;22.10;55.80
38684;DHT22;24910;53.248;-6.134;2023-06-14T11:52:05;22.00;55.90
38684;DHT22;24910;53.248;-6.134;2023-06-14T11:54:34;22.10;56.00
38684;DHT22;24910;53.248;-6.134;2023-06-14T11:57:04;22.10;55.90
38684;DHT22;24910;53.248;-6.134;2023-06-14T11:59:40;22.20;56.00
38684;DHT22;24910;53.248;-6.134;2023-06-14T12:02:15;22.20;55.80
38684;DHT22;24910;53.248;-6.134;2023-06-14T12:04:47;22.20;55.80
38684;DHT22;24910;53.248;-6.134;2023-06-14T12:07:17;22.00;56.00
38684;DHT22;24910;53.248;-6.134;2023-06-14T12:10:06;21.80;56.60
38684;DHT22;24910;53.248;-6.134;2023-06-14T12:12:37;21.80;57.00
38684;DHT22;24910;53.248;-6.134;2023-06-14T12:15:08;21.70;57.10
38684;DHT22;24910;53.248;-6.134;2023-06-14T12:17:42;21.70;57.70
38684;DHT22;24910;53.248;-6.134;2023-06-14T12:20:13;21.50;58.00
38684;DHT22;24910;53.248;-6.134;2023-06-14T12:22:52;21.40;58.20
38684;DHT22;24910;53.248;-6.134;2023-06-14T12:25:27;21.30;58.70
38684;DHT22;24910;53.248;-6.134;2023-06-14T12:27:56;21.10;59.10
38684;DHT22;24910;53.248;-6.134;2023-06-14T12:30:26;21.20;59.50
38684;DHT22;24910;53.248;-6.134;2023-06-14T12:32:56;21.20;59.30
38684;DHT22;24910;53.248;-6.134;2023-06-14T12:35:26;21.20;59.50
38684;DHT22;24910;53.248;-6.134;2023-06-14T12:37:55;21.20;59.80
38684;DHT22;24910;53.248;-6.134;2023-06-14T12:40:24;21.10;59.90
38684;DHT22;24910;53.248;-6.134;2023-06-14T12:42:54;21.10;60.00
38684;DHT22;24910;53.248;-6.134;2023-06-14T12:45:23;21.00;60.30
38684;DHT22;24910;53.248;-6.134;2023-06-14T12:47:52;20.90;60.70
38684;DHT22;24910;53.248;-6.134;2023-06-14T12:50:23;20.90;60.80
38684;DHT22;24910;53.248;-6.134;2023-06-14T12:52:53;20.80;61.10
38684;DHT22;24910;53.248;-6.134;2023-06-14T12:55:23;20.70;61.60
38684;DHT22;24910;53.248;-6.134;2023-06-14T12:57:52;20.80;62.00
38684;DHT22;24910;53.248;-6.134;2023-06-14T13:00:22;20.90;62.10
38684;DHT22;24910;53.248;-6.134;2023-06-14T13:02:53;20.80;62.00
38684;DHT22;24910;53.248;-6.134;2023-06-14T13:05:24;20.80;61.90
38684;DHT22;24910;53.248;-6.134;2023-06-14T13:07:53;20.90;62.10
38684;DHT22;24910;53.248;-6.134;2023-06-14T13:10:22;20.90;61.60
38684;DHT22;24910;53.248;-6.134;2023-06-14T13:12:51;21.00;61.40
38684;DHT22;24910;53.248;-6.134;2023-06-14T13:15:23;21.10;61.30
38684;DHT22;24910;53.248;-6.134;2023-06-14T13:17:53;21.10;61.30
38684;DHT22;24910;53.248;-6.134;2023-06-14T13:20:24;21.10;61.40
38684;DHT22;24910;53.248;-6.134;2023-06-14T13:22:53;21.20;61.40
38684;DHT22;24910;53.248;-6.134;2023-06-14T13:25:22;21.20;61.10
38684;DHT22;24910;53.248;-6.134;2023-06-14T13:27:52;21.20;61.30
38684;DHT22;24910;53.248;-6.134;2023-06-14T13:30:21;21.10;61.20
38684;DHT22;24910;53.248;-6.134;2023-06-14T13:32:50;21.10;61.40
38684;DHT22;24910;53.248;-6.134;2023-06-14T13:35:19;21.00;61.70
38684;DHT22;24910;53.248;-6.134;2023-06-14T13:37:50;21.00;62.80
38684;DHT22;24910;53.248;-6.134;2023-06-14T13:40:19;21.00;61.60
38684;DHT22;24910;53.248;-6.134;2023-06-14T13:42:48;20.90;61.20
38684;DHT22;24910;53.248;-6.134;2023-06-14T13:45:18;20.90;60.90
38684;DHT22;24910;53.248;-6.134;2023-06-14T13:47:47;21.00;61.30
38684;DHT22;24910;53.248;-6.134;2023-06-14T13:50:17;21.00;61.50
38684;DHT22;24910;53.248;-6.134;2023-06-14T13:52:46;21.00;61.60
38684;DHT22;24910;53.248;-6.134;2023-06-14T13:55:17;21.00;61.50
38684;DHT22;24910;53.248;-6.134;2023-06-14T13:57:46;20.90;62.40
38684;DHT22;24910;53.248;-6.134;2023-06-14T14:00:16;20.90;61.80
38684;DHT22;24910;53.248;-6.134;2023-06-14T14:02:50;20.90;61.60
38684;DHT22;24910;53.248;-6.134;2023-06-14T14:05:19;20.80;61.40
38684;DHT22;24910;53.248;-6.134;2023-06-14T14:07:53;20.80;61.60
38684;DHT22;24910;53.248;-6.134;2023-06-14T14:10:24;20.80;62.10
38684;DHT22;24910;53.248;-6.134;2023-06-14T14:12:53;20.80;62.50
38684;DHT22;24910;53.248;-6.134;2023-06-14T14:15:22;20.90;62.30
38684;DHT22;24910;53.248;-6.134;2023-06-14T14:17:53;20.80;61.80
38684;DHT22;24910;53.248;-6.134;2023-06-14T14:20:22;20.80;61.80
38684;DHT22;24910;53.248;-6.134;2023-06-14T14:22:52;20.80;62.10
38684;DHT22;24910;53.248;-6.134;2023-06-14T14:25:21;20.80;62.40
38684;DHT22;24910;53.248;-6.134;2023-06-14T14:27:51;20.90;62.50
38684;DHT22;24910;53.248;-6.134;2023-06-14T14:30:21;20.90;62.00
38684;DHT22;24910;53.248;-6.134;2023-06-14T14:32:51;21.00;61.70
38684;DHT22;24910;53.248;-6.134;2023-06-14T14:35:20;21.00;61.40
38684;DHT22;24910;53.248;-6.134;2023-06-14T14:37:52;21.00;61.20
38684;DHT22;24910;53.248;-6.134;2023-06-14T14:40:21;21.00;61.30
38684;DHT22;24910;53.248;-6.134;2023-06-14T14:42:52;21.00;61.40
38684;DHT22;24910;53.248;-6.134;2023-06-14T14:45:21;21.00;61.40
38684;DHT22;24910;53.248;-6.134;2023-06-14T14:47:50;20.90;61.30
38684;DHT22;24910;53.248;-6.134;2023-06-14T14:50:23;21.00;61.10
38684;DHT22;24910;53.248;-6.134;2023-06-14T14:52:52;21.00;60.20
38684;DHT22;24910;53.248;-6.134;2023-06-14T14:55:21;21.00;59.60
38684;DHT22;24910;53.248;-6.134;2023-06-14T14:57:53;21.10;59.50
38684;DHT22;24910;53.248;-6.134;2023-06-14T15:00:24;21.10;59.10
38684;DHT22;24910;53.248;-6.134;2023-06-14T15:02:53;21.10;58.80
38684;DHT22;24910;53.248;-6.134;2023-06-14T15:05:24;21.10;58.80
38684;DHT22;24910;53.248;-6.134;2023-06-14T15:07:53;21.20;59.30
38684;DHT22;24910;53.248;-6.134;2023-06-14T15:10:22;21.20;58.90
38684;DHT22;24910;53.248;-6.134;2023-06-14T15:12:53;21.20;58.30
38684;DHT22;24910;53.248;-6.134;2023-06-14T15:15:22;21.20;57.80
38684;DHT22;24910;53.248;-6.134;2023-06-14T15:17:52;21.10;57.60
38684;DHT22;24910;53.248;-6.134;2023-06-14T15:20:22;21.10;57.90
38684;DHT22;24910;53.248;-6.134;2023-06-14T15:22:51;21.20;58.30
38684;DHT22;24910;53.248;-6.134;2023-06-14T15:25:20;21.20;58.20
38684;DHT22;24910;53.248;-6.134;2023-06-14T15:27:49;21.20;57.80
38684;DHT22;24910;53.248;-6.134;2023-06-14T15:30:19;21.20;57.70
38684;DHT22;24910;53.248;-6.134;2023-06-14T15:32:49;21.20;57.50
38684;DHT22;24910;53.248;-6.134;2023-06-14T15:35:18;21.20;56.80
38684;DHT22;24910;53.248;-6.134;2023-06-14T15:37:48;21.20;56.10
38684;DHT22;24910;53.248;-6.134;2023-06-14T15:40:17;21.10;55.50
38684;DHT22;24910;53.248;-6.134;2023-06-14T15:42:46;21.10;55.20
38684;DHT22;24910;53.248;-6.134;2023-06-14T15:45:15;21.10;55.10